sensor_id;sensor_type;location;lat;lon;timestamp;pressure;altitude;pressure_sealevel;temperature;humidity
61035;BME280;46916;40.564;-7.958;2022-11-06T00:01:16;97759.50;;;11.36;69.48
61035;BME280;46916;40.564;-7.958;2022-11-06T00:03:17;97754.09;;;11.37;69.12
61035;BME280;46916;40.564;-7.958;2022-11-06T00:05:18;97760.19;;;11.38;69.34
61035;BME280;46916;40.564;-7.958;2022-11-06T00:07:37;97758.38;;;11.38;69.83
61035;BME280;46916;40.564;-7.958;2022-11-06T00:09:38;97756.63;;;11.39;69.38
61035;BME280;46916;40.564;-7.958;2022-11-06T00:11:39;97755.22;;;11.35;69.85
61035;BME280;46916;40.564;-7.958;2022-11-06T00:13:41;97748.41;;;11.32;69.80
61035;BME280;46916;40.564;-7.958;2022-11-06T00:15:42;97745.78;;;11.32;69.60
61035;BME280;46916;40.564;-7.958;2022-11-06T00:17:43;97754.50;;;11.33;69.64
61035;BME280;46916;40.564;-7.958;2022-11-06T00:19:44;97755.44;;;11.32;69.48
61035;BME280;46916;40.564;-7.958;2022-11-06T00:21:44;97755.44;;;11.32;69.75
61035;BME280;46916;40.564;-7.958;2022-11-06T00:23:46;97754.63;;;11.31;69.57
61035;BME280;46916;40.564;-7.958;2022-11-06T00:25:47;97752.25;;;11.28;69.76
61035;BME280;46916;40.564;-7.958;2022-11-06T00:27:52;97750.25;;;11.21;69.44
61035;BME280;46916;40.564;-7.958;2022-11-06T00:29:53;97749.91;;;11.14;69.69
61035;BME280;46916;40.564;-7.958;2022-11-06T00:31:54;97746.75;;;11.10;69.89
61035;BME280;46916;40.564;-7.958;2022-11-06T00:33:56;97736.50;;;11.07;69.76
61035;BME280;46916;40.564;-7.958;2022-11-06T00:35:57;97742.81;;;11.05;70.03
61035;BME280;46916;40.564;-7.958;2022-11-06T00:37:58;97742.94;;;11.03;70.23
61035;BME280;46916;40.564;-7.958;2022-11-06T00:39:59;97741.97;;;11.04;69.98
61035;BME280;46916;40.564;-7.958;2022-11-06T00:42:00;97740.44;;;11.02;69.98
61035;BME280;46916;40.564;-7.958;2022-11-06T00:44:01;97739.72;;;11.00;70.28
61035;BME280;46916;40.564;-7.958;2022-11-06T00:46:10;97743.19;;;11.00;70.44
61035;BME280;46916;40.564;-7.958;2022-11-06T00:48:10;97744.84;;;11.01;70.14
61035;BME280;46916;40.564;-7.958;2022-11-06T00:50:11;97741.28;;;11.02;70.23
61035;BME280;46916;40.564;-7.958;2022-11-06T00:52:12;97736.72;;;11.04;70.55
61035;BME280;46916;40.564;-7.958;2022-11-06T00:54:13;97736.03;;;11.02;70.41
61035;BME280;46916;40.564;-7.958;2022-11-06T00:56:16;97726.03;;;10.96;70.29
61035;BME280;46916;40.564;-7.958;2022-11-06T00:58:17;97728.91;;;10.93;70.42
61035;BME280;46916;40.564;-7.958;2022-11-06T01:00:18;97728.22;;;10.91;70.55
61035;BME280;46916;40.564;-7.958;2022-11-06T01:02:19;97732.63;;;10.90;70.28
61035;BME280;46916;40.564;-7.958;2022-11-06T01:04:22;97723.66;;;10.93;70.21
61035;BME280;46916;40.564;-7.958;2022-11-06T01:06:25;97730.59;;;10.94;70.38
61035;BME280;46916;40.564;-7.958;2022-11-06T01:08:26;97730.00;;;10.90;70.10
61035;BME280;46916;40.564;-7.958;2022-11-06T01:10:27;97724.28;;;10.85;70.52
61035;BME280;46916;40.564;-7.958;2022-11-06T01:12:30;97731.22;;;10.86;70.52
61035;BME280;46916;40.564;-7.958;2022-11-06T01:14:31;97730.50;;;10.84;70.19
61035;BME280;46916;40.564;-7.958;2022-11-06T01:16:32;97718.59;;;10.80;70.06
61035;BME280;46916;40.564;-7.958;2022-11-06T01:18:34;97722.66;;;10.73;70.69
61035;BME280;46916;40.564;-7.958;2022-11-06T01:20:36;97724.50;;;10.61;70.58
61035;BME280;46916;40.564;-7.958;2022-11-06T01:22:37;97719.59;;;10.57;71.17
61035;BME280;46916;40.564;-7.958;2022-11-06T01:24:37;97722.50;;;10.54;71.70
61035;BME280;46916;40.564;-7.958;2022-11-06T01:26:38;97721.66;;;10.53;71.47
61035;BME280;46916;40.564;-7.958;2022-11-06T01:28:40;97714.50;;;10.55;71.27
61035;BME280;46916;40.564;-7.958;2022-11-06T01:30:41;97709.84;;;10.59;70.89
61035;BME280;46916;40.564;-7.958;2022-11-06T01:32:41;97707.09;;;10.60;71.06
61035;BME280;46916;40.564;-7.958;2022-11-06T01:34:42;97706.84;;;10.63;70.74
61035;BME280;46916;40.564;-7.958;2022-11-06T01:36:43;97716.38;;;10.64;70.69
61035;BME280;46916;40.564;-7.958;2022-11-06T01:38:46;97718.63;;;10.69;70.70
61035;BME280;46916;40.564;-7.958;2022-11-06T01:40:47;97715.31;;;10.67;70.41
61035;BME280;46916;40.564;-7.958;2022-11-06T01:42:48;97718.50;;;10.71;70.83
61035;BME280;46916;40.564;-7.958;2022-11-06T01:45:14;97713.38;;;10.69;70.73
61035;BME280;46916;40.564;-7.958;2022-11-06T01:49:21;97719.94;;;10.63;70.87
61035;BME280;46916;40.564;-7.958;2022-11-06T01:51:24;97724.50;;;10.61;70.40
61035;BME280;46916;40.564;-7.958;2022-11-06T01:53:26;97720.19;;;10.60;70.45
61035;BME280;46916;40.564;-7.958;2022-11-06T01:55:32;97725.81;;;10.56;71.04
61035;BME280;46916;40.564;-7.958;2022-11-06T01:57:34;97730.22;;;10.55;70.87
61035;BME280;46916;40.564;-7.958;2022-11-06T01:59:43;97723.31;;;10.54;71.25
61035;BME280;46916;40.564;-7.958;2022-11-06T02:01:44;97726.16;;;10.51;70.96
61035;BME280;46916;40.564;-7.958;2022-11-06T02:04:12;97727.97;;;10.51;71.26
61035;BME280;46916;40.564;-7.958;2022-11-06T02:06:14;97725.47;;;10.49;71.15
61035;BME280;46916;40.564;-7.958;2022-11-06T02:08:18;97728.19;;;10.48;71.41
61035;BME280;46916;40.564;-7.958;2022-11-06T02:10:20;97725.56;;;10.48;71.44
61035;BME280;46916;40.564;-7.958;2022-11-06T02:27:13;97738.31;;;10.52;71.13
61035;BME280;46916;40.564;-7.958;2022-11-06T02:29:33;97737.16;;;10.45;71.39
61035;BME280;46916;40.564;-7.958;2022-11-06T02:31:40;97740.69;;;10.44;71.51
61035;BME280;46916;40.564;-7.958;2022-11-06T02:33:50;97742.38;;;10.45;71.06
61035;BME280;46916;40.564;-7.958;2022-11-06T02:36:00;97745.00;;;10.45;71.41
61035;BME280;46916;40.564;-7.958;2022-11-06T02:38:07;97746.44;;;10.38;70.90
61035;BME280;46916;40.564;-7.958;2022-11-06T02:40:10;97739.16;;;10.19;70.95
61035;BME280;46916;40.564;-7.958;2022-11-06T02:42:14;97744.88;;;10.02;71.67
61035;BME280;46916;40.564;-7.958;2022-11-06T02:44:19;97744.84;;;9.90;72.04
61035;BME280;46916;40.564;-7.958;2022-11-06T02:46:50;97746.41;;;9.82;72.71
61035;BME280;46916;40.564;-7.958;2022-11-06T02:49:01;97744.59;;;9.71;72.81
61035;BME280;46916;40.564;-7.958;2022-11-06T02:51:04;97751.16;;;9.77;72.41
61035;BME280;46916;40.564;-7.958;2022-11-06T02:53:07;97743.63;;;9.61;72.75
61035;BME280;46916;40.564;-7.958;2022-11-06T02:55:16;97737.78;;;9.57;73.17
61035;BME280;46916;40.564;-7.958;2022-11-06T02:57:20;97745.28;;;9.62;73.16
61035;BME280;46916;40.564;-7.958;2022-11-06T02:59:25;97739.72;;;9.66;72.88
61035;BME280;46916;40.564;-7.958;2022-11-06T03:01:37;97745.09;;;9.76;72.73
61035;BME280;46916;40.564;-7.958;2022-11-06T03:03:42;97750.66;;;9.83;72.40
61035;BME280;46916;40.564;-7.958;2022-11-06T03:05:56;97756.97;;;9.91;72.25
61035;BME280;46916;40.564;-7.958;2022-11-06T03:08:07;97755.09;;;9.93;72.24
61035;BME280;46916;40.564;-7.958;2022-11-06T03:10:10;97749.03;;;9.93;72.02
61035;BME280;46916;40.564;-7.958;2022-11-06T03:12:23;97759.00;;;9.99;72.02
61035;BME280;46916;40.564;-7.958;2022-11-06T03:14:51;97744.03;;;10.01;71.56
61035;BME280;46916;40.564;-7.958;2022-11-06T03:17:13;97739.63;;;10.02;71.42
61035;BME280;46916;40.564;-7.958;2022-11-06T03:19:35;97737.72;;;10.04;71.18
61035;BME280;46916;40.564;-7.958;2022-11-06T03:24:13;97726.31;;;10.05;71.17
61035;BME280;46916;40.564;-7.958;2022-11-06T03:26:23;97730.72;;;10.04;71.56
61035;BME280;46916;40.564;-7.958;2022-11-06T03:28:38;97730.00;;;10.02;71.41
61035;BME280;46916;40.564;-7.958;2022-11-06T03:30:44;97721.06;;;9.93;71.57
61035;BME280;46916;40.564;-7.958;2022-11-06T03:32:50;97711.06;;;9.87;71.83
61035;BME280;46916;40.564;-7.958;2022-11-06T03:35:09;97702.16;;;9.79;71.60
61035;BME280;46916;40.564;-7.958;2022-11-06T03:37:17;97697.63;;;9.58;72.16
61035;BME280;46916;40.564;-7.958;2022-11-06T03:39:25;97713.63;;;9.42;72.32
61035;BME280;46916;40.564;-7.958;2022-11-06T03:43:35;97725.03;;;9.41;72.40
61035;BME280;46916;40.564;-7.958;2022-11-06T03:45:39;97726.03;;;9.52;72.25
61035;BME280;46916;40.564;-7.958;2022-11-06T03:47:44;97720.66;;;9.53;72.55
61035;BME280;46916;40.564;-7.958;2022-11-06T03:49:51;97719.47;;;9.46;72.83
61035;BME280;46916;40.564;-7.958;2022-11-06T03:52:00;97716.38;;;9.41;72.90
61035;BME280;46916;40.564;-7.958;2022-11-06T03:54:06;97728.25;;;9.45;72.80
61035;BME280;46916;40.564;-7.958;2022-11-06T03:56:17;97731.00;;;9.55;72.66
61035;BME280;46916;40.564;-7.958;2022-11-06T03:58:23;97739.97;;;9.63;72.59
61035;BME280;46916;40.564;-7.958;2022-11-06T04:00:25;97746.38;;;9.71;72.60
61035;BME280;46916;40.564;-7.958;2022-11-06T04:02:27;97745.09;;;9.76;72.57
61035;BME280;46916;40.564;-7.958;2022-11-06T04:04:45;97741.28;;;9.80;72.12
61035;BME280;46916;40.564;-7.958;2022-11-06T04:06:51;97741.88;;;9.84;72.33
61035;BME280;46916;40.564;-7.958;2022-11-06T04:08:58;97746.88;;;9.87;72.27
61035;BME280;46916;40.564;-7.958;2022-11-06T04:11:19;97759.94;;;9.87;72.35
61035;BME280;46916;40.564;-7.958;2022-11-06T04:13:40;97754.47;;;9.79;72.88
61035;BME280;46916;40.564;-7.958;2022-11-06T04:15:56;97752.69;;;9.79;72.95
61035;BME280;46916;40.564;-7.958;2022-11-06T04:17:57;97755.44;;;9.78;72.97
61035;BME280;46916;40.564;-7.958;2022-11-06T04:20:01;97747.69;;;9.76;72.91
61035;BME280;46916;40.564;-7.958;2022-11-06T04:24:45;97741.50;;;9.77;72.02
61035;BME280;46916;40.564;-7.958;2022-11-06T04:42:59;97714.06;;;9.72;73.83
61035;BME280;46916;40.564;-7.958;2022-11-06T04:45:05;97712.13;;;9.74;74.25
61035;BME280;46916;40.564;-7.958;2022-11-06T04:47:08;97704.28;;;9.74;74.68
61035;BME280;46916;40.564;-7.958;2022-11-06T04:49:12;97712.28;;;9.72;74.76
61035;BME280;46916;40.564;-7.958;2022-11-06T04:51:14;97715.59;;;9.74;74.80
61035;BME280;46916;40.564;-7.958;2022-11-06T04:53:17;97707.50;;;9.77;75.37
61035;BME280;46916;40.564;-7.958;2022-11-06T04:55:20;97717.75;;;9.80;75.23
61035;BME280;46916;40.564;-7.958;2022-11-06T04:57:22;97718.09;;;9.87;75.62
61035;BME280;46916;40.564;-7.958;2022-11-06T04:59:23;97728.78;;;9.95;75.49
61035;BME280;46916;40.564;-7.958;2022-11-06T05:01:24;97724.06;;;10.00;75.00
61035;BME280;46916;40.564;-7.958;2022-11-06T05:03:24;97727.25;;;10.04;75.17
61035;BME280;46916;40.564;-7.958;2022-11-06T05:05:25;97728.09;;;10.04;75.17
61035;BME280;46916;40.564;-7.958;2022-11-06T05:07:26;97728.81;;;10.06;74.70
61035;BME280;46916;40.564;-7.958;2022-11-06T05:09:27;97725.22;;;10.07;74.81
61035;BME280;46916;40.564;-7.958;2022-11-06T05:11:28;97725.22;;;10.07;75.13
61035;BME280;46916;40.564;-7.958;2022-11-06T05:13:29;97710.97;;;10.00;74.98
61035;BME280;46916;40.564;-7.958;2022-11-06T05:15:29;97716.53;;;9.96;75.58
61035;BME280;46916;40.564;-7.958;2022-11-06T05:17:30;97713.00;;;9.97;75.34
61035;BME280;46916;40.564;-7.958;2022-11-06T05:19:30;97713.59;;;10.00;75.37
61035;BME280;46916;40.564;-7.958;2022-11-06T05:21:31;97715.84;;;10.05;75.46
61035;BME280;46916;40.564;-7.958;2022-11-06T05:23:50;97709.06;;;10.02;75.25
61035;BME280;46916;40.564;-7.958;2022-11-06T05:25:51;97716.91;;;10.02;75.12
61035;BME280;46916;40.564;-7.958;2022-11-06T05:27:52;97707.88;;;10.06;75.19
61035;BME280;46916;40.564;-7.958;2022-11-06T05:29:52;97706.69;;;10.10;74.92
61035;BME280;46916;40.564;-7.958;2022-11-06T05:31:53;97695.00;;;10.14;74.96
61035;BME280;46916;40.564;-7.958;2022-11-06T05:33:54;97676.56;;;10.16;74.77
61035;BME280;46916;40.564;-7.958;2022-11-06T05:35:54;97672.41;;;10.13;75.04
61035;BME280;46916;40.564;-7.958;2022-11-06T05:38:00;97677.28;;;10.07;75.65
61035;BME280;46916;40.564;-7.958;2022-11-06T05:40:01;97673.38;;;10.01;75.88
61035;BME280;46916;40.564;-7.958;2022-11-06T05:42:02;97683.84;;;10.01;75.69
61035;BME280;46916;40.564;-7.958;2022-11-06T05:44:02;97682.75;;;10.04;75.60
61035;BME280;46916;40.564;-7.958;2022-11-06T05:46:03;97672.66;;;9.99;75.61
61035;BME280;46916;40.564;-7.958;2022-11-06T05:48:04;97664.22;;;9.96;75.51
61035;BME280;46916;40.564;-7.958;2022-11-06T05:50:05;97656.50;;;9.94;75.80
61035;BME280;46916;40.564;-7.958;2022-11-06T05:52:06;97635.94;;;9.89;76.07
61035;BME280;46916;40.564;-7.958;2022-11-06T05:54:07;97622.75;;;9.80;75.76
61035;BME280;46916;40.564;-7.958;2022-11-06T05:56:07;97623.22;;;9.74;76.41
61035;BME280;46916;40.564;-7.958;2022-11-06T05:58:08;97627.38;;;9.76;76.29
61035;BME280;46916;40.564;-7.958;2022-11-06T06:00:10;97637.03;;;9.76;76.17
61035;BME280;46916;40.564;-7.958;2022-11-06T06:02:14;97639.50;;;9.77;76.09
61035;BME280;46916;40.564;-7.958;2022-11-06T06:04:14;97651.63;;;9.78;75.75
61035;BME280;46916;40.564;-7.958;2022-11-06T06:06:15;97672.44;;;9.68;75.67
61035;BME280;46916;40.564;-7.958;2022-11-06T06:08:16;97695.16;;;9.68;75.53
61035;BME280;46916;40.564;-7.958;2022-11-06T06:10:17;97722.00;;;9.70;75.35
61035;BME280;46916;40.564;-7.958;2022-11-06T06:12:18;97729.84;;;9.70;75.70
61035;BME280;46916;40.564;-7.958;2022-11-06T06:14:19;97725.69;;;9.67;75.92
61035;BME280;46916;40.564;-7.958;2022-11-06T06:16:20;97715.34;;;9.66;76.00
61035;BME280;46916;40.564;-7.958;2022-11-06T06:18:20;97705.59;;;9.68;75.89
61035;BME280;46916;40.564;-7.958;2022-11-06T06:20:21;97700.25;;;9.70;75.80
61035;BME280;46916;40.564;-7.958;2022-11-06T06:22:22;97712.28;;;9.72;75.48
61035;BME280;46916;40.564;-7.958;2022-11-06T06:24:22;97707.63;;;9.76;75.88
61035;BME280;46916;40.564;-7.958;2022-11-06T06:26:23;97700.25;;;9.81;75.75
61035;BME280;46916;40.564;-7.958;2022-11-06T06:28:24;97691.47;;;9.82;76.08
61035;BME280;46916;40.564;-7.958;2022-11-06T06:30:25;97694.06;;;9.82;76.20
61035;BME280;46916;40.564;-7.958;2022-11-06T06:32:25;97696.47;;;9.85;76.43
61035;BME280;46916;40.564;-7.958;2022-11-06T06:34:26;97693.34;;;9.91;76.77
61035;BME280;46916;40.564;-7.958;2022-11-06T06:36:27;97699.09;;;9.96;76.71
61035;BME280;46916;40.564;-7.958;2022-11-06T06:38:27;97694.56;;;9.98;76.83
61035;BME280;46916;40.564;-7.958;2022-11-06T06:40:28;97684.81;;;10.00;76.96
61035;BME280;46916;40.564;-7.958;2022-11-06T06:42:30;97683.84;;;10.01;76.63
61035;BME280;46916;40.564;-7.958;2022-11-06T06:44:31;97677.19;;;9.97;77.11
61035;BME280;46916;40.564;-7.958;2022-11-06T06:46:32;97678.03;;;9.98;77.39
61035;BME280;46916;40.564;-7.958;2022-11-06T06:48:33;97683.94;;;10.00;77.24
61035;BME280;46916;40.564;-7.958;2022-11-06T06:50:33;97697.63;;;10.03;77.50
61035;BME280;46916;40.564;-7.958;2022-11-06T06:52:34;97693.94;;;10.06;77.43
61035;BME280;46916;40.564;-7.958;2022-11-06T06:54:35;97684.19;;;10.08;77.66
61035;BME280;46916;40.564;-7.958;2022-11-06T06:56:35;97678.72;;;10.11;77.88
61035;BME280;46916;40.564;-7.958;2022-11-06T06:58:36;97677.41;;;10.16;78.08
61035;BME280;46916;40.564;-7.958;2022-11-06T07:00:36;97679.66;;;10.21;77.99
61035;BME280;46916;40.564;-7.958;2022-11-06T07:02:37;97682.91;;;10.25;77.65
61035;BME280;46916;40.564;-7.958;2022-11-06T07:04:38;97692.28;;;10.27;77.94
61035;BME280;46916;40.564;-7.958;2022-11-06T07:06:39;97697.16;;;10.32;78.02
61035;BME280;46916;40.564;-7.958;2022-11-06T07:08:39;97700.50;;;10.34;77.97
61035;BME280;46916;40.564;-7.958;2022-11-06T07:10:40;97690.84;;;10.34;78.52
61035;BME280;46916;40.564;-7.958;2022-11-06T07:12:41;97691.56;;;10.36;78.50
61035;BME280;46916;40.564;-7.958;2022-11-06T07:14:41;97695.97;;;10.36;78.19
61035;BME280;46916;40.564;-7.958;2022-11-06T07:16:42;97699.53;;;10.35;78.12
61035;BME280;46916;40.564;-7.958;2022-11-06T07:18:42;97704.78;;;10.35;78.37
61035;BME280;46916;40.564;-7.958;2022-11-06T07:20:43;97702.97;;;10.35;78.00
61035;BME280;46916;40.564;-7.958;2022-11-06T07:22:44;97703.94;;;10.34;77.63
61035;BME280;46916;40.564;-7.958;2022-11-06T07:24:44;97702.16;;;10.35;77.79
61035;BME280;46916;40.564;-7.958;2022-11-06T07:26:45;97706.34;;;10.37;77.60
61035;BME280;46916;40.564;-7.958;2022-11-06T07:28:46;97707.25;;;10.36;77.94
61035;BME280;46916;40.564;-7.958;2022-11-06T07:30:46;97703.81;;;10.36;77.82
61035;BME280;46916;40.564;-7.958;2022-11-06T07:32:47;97711.56;;;10.37;77.92
61035;BME280;46916;40.564;-7.958;2022-11-06T07:34:48;97700.81;;;10.40;77.55
61035;BME280;46916;40.564;-7.958;2022-11-06T07:36:48;97706.06;;;10.40;77.77
61035;BME280;46916;40.564;-7.958;2022-11-06T07:38:49;97704.53;;;10.38;77.98
61035;BME280;46916;40.564;-7.958;2022-11-06T07:40:50;97699.31;;;10.38;78.16
61035;BME280;46916;40.564;-7.958;2022-11-06T07:42:50;97713.09;;;10.40;78.17
61035;BME280;46916;40.564;-7.958;2022-11-06T07:44:53;97718.22;;;10.41;77.83
61035;BME280;46916;40.564;-7.958;2022-11-06T07:46:54;97722.38;;;10.44;77.72
61035;BME280;46916;40.564;-7.958;2022-11-06T07:48:55;97723.19;;;10.45;77.91
61035;BME280;46916;40.564;-7.958;2022-11-06T07:50:56;97731.31;;;10.41;78.01
61035;BME280;46916;40.564;-7.958;2022-11-06T07:53:00;97723.94;;;10.35;78.32
61035;BME280;46916;40.564;-7.958;2022-11-06T07:55:01;97733.56;;;10.35;78.86
61035;BME280;46916;40.564;-7.958;2022-11-06T07:57:02;97729.75;;;10.39;78.54
61035;BME280;46916;40.564;-7.958;2022-11-06T07:59:03;97736.41;;;10.43;78.72
61035;BME280;46916;40.564;-7.958;2022-11-06T08:01:04;97739.75;;;10.45;78.58
61035;BME280;46916;40.564;-7.958;2022-11-06T08:03:04;97732.97;;;10.43;78.66
61035;BME280;46916;40.564;-7.958;2022-11-06T08:05:05;97750.47;;;10.42;78.46
61035;BME280;46916;40.564;-7.958;2022-11-06T08:07:06;97754.63;;;10.45;78.93
61035;BME280;46916;40.564;-7.958;2022-11-06T08:09:07;97754.50;;;10.46;78.85
61035;BME280;46916;40.564;-7.958;2022-11-06T08:11:09;97760.59;;;10.47;78.81
61035;BME280;46916;40.564;-7.958;2022-11-06T08:13:11;97762.25;;;10.48;79.34
61035;BME280;46916;40.564;-7.958;2022-11-06T08:15:12;97765.69;;;10.48;79.27
61035;BME280;46916;40.564;-7.958;2022-11-06T08:17:13;97766.50;;;10.49;80.03
61035;BME280;46916;40.564;-7.958;2022-11-06T08:19:14;97774.28;;;10.50;80.12
61035;BME280;46916;40.564;-7.958;2022-11-06T08:21:14;97778.53;;;10.51;80.84
61035;BME280;46916;40.564;-7.958;2022-11-06T08:23:15;97787.97;;;10.54;81.34
61035;BME280;46916;40.564;-7.958;2022-11-06T08:25:16;97785.94;;;10.57;81.41
61035;BME280;46916;40.564;-7.958;2022-11-06T08:27:16;97784.00;;;10.59;81.56
61035;BME280;46916;40.564;-7.958;2022-11-06T08:29:17;97793.66;;;10.59;81.69
61035;BME280;46916;40.564;-7.958;2022-11-06T08:31:18;97796.97;;;10.61;81.92
61035;BME280;46916;40.564;-7.958;2022-11-06T08:33:21;97794.25;;;10.62;82.47
61035;BME280;46916;40.564;-7.958;2022-11-06T08:35:22;97792.47;;;10.63;82.08
61035;BME280;46916;40.564;-7.958;2022-11-06T08:37:22;97796.75;;;10.64;82.02
61035;BME280;46916;40.564;-7.958;2022-11-06T08:39:23;97802.81;;;10.64;82.34
61035;BME280;46916;40.564;-7.958;2022-11-06T08:41:23;97802.81;;;10.64;82.83
61035;BME280;46916;40.564;-7.958;2022-11-06T08:43:24;97807.13;;;10.65;82.75
61035;BME280;46916;40.564;-7.958;2022-11-06T08:45:26;97796.66;;;10.65;83.18
61035;BME280;46916;40.564;-7.958;2022-11-06T08:47:27;97798.06;;;10.70;83.32
61035;BME280;46916;40.564;-7.958;2022-11-06T08:49:27;97796.28;;;10.70;83.56
61035;BME280;46916;40.564;-7.958;2022-11-06T08:51:28;97800.91;;;10.66;84.07
61035;BME280;46916;40.564;-7.958;2022-11-06T08:53:29;97798.06;;;10.70;84.25
61035;BME280;46916;40.564;-7.958;2022-11-06T08:55:30;97795.91;;;10.75;84.66
61035;BME280;46916;40.564;-7.958;2022-11-06T08:57:30;97805.88;;;10.81;84.77
61035;BME280;46916;40.564;-7.958;2022-11-06T08:59:31;97811.84;;;10.83;85.00
61035;BME280;46916;40.564;-7.958;2022-11-06T09:01:32;97821.00;;;10.88;84.71
61035;BME280;46916;40.564;-7.958;2022-11-06T09:03:33;97824.06;;;10.94;84.64
61035;BME280;46916;40.564;-7.958;2022-11-06T09:05:33;97816.94;;;10.96;84.99
61035;BME280;46916;40.564;-7.958;2022-11-06T09:07:34;97823.25;;;10.93;85.19
61035;BME280;46916;40.564;-7.958;2022-11-06T09:09:35;97826.97;;;10.90;85.87
61035;BME280;46916;40.564;-7.958;2022-11-06T09:11:35;97829.00;;;10.87;86.75
61035;BME280;46916;40.564;-7.958;2022-11-06T09:13:36;97834.22;;;10.87;86.88
61035;BME280;46916;40.564;-7.958;2022-11-06T09:15:38;97829.81;;;10.87;87.17
61035;BME280;46916;40.564;-7.958;2022-11-06T09:17:46;97820.91;;;10.90;87.19
61035;BME280;46916;40.564;-7.958;2022-11-06T09:19:47;97834.47;;;10.95;87.68
61035;BME280;46916;40.564;-7.958;2022-11-06T09:21:47;97835.16;;;10.97;88.13
61035;BME280;46916;40.564;-7.958;2022-11-06T09:23:48;97819.19;;;11.00;88.40
61035;BME280;46916;40.564;-7.958;2022-11-06T09:25:49;97822.28;;;11.05;88.28
61035;BME280;46916;40.564;-7.958;2022-11-06T09:27:51;97820.38;;;11.07;88.56
61035;BME280;46916;40.564;-7.958;2022-11-06T09:29:52;97824.50;;;11.10;88.30
61035;BME280;46916;40.564;-7.958;2022-11-06T09:31:53;97823.59;;;11.11;88.90
61035;BME280;46916;40.564;-7.958;2022-11-06T09:33:54;97822.63;;;11.12;89.31
61035;BME280;46916;40.564;-7.958;2022-11-06T09:35:55;97821.66;;;11.13;89.58
61035;BME280;46916;40.564;-7.958;2022-11-06T09:38:14;97827.63;;;11.15;89.44
61035;BME280;46916;40.564;-7.958;2022-11-06T09:40:27;97836.91;;;11.19;89.61
61035;BME280;46916;40.564;-7.958;2022-11-06T09:42:46;97836.06;;;11.19;90.01
61035;BME280;46916;40.564;-7.958;2022-11-06T09:45:12;97834.38;;;11.18;90.14
61035;BME280;46916;40.564;-7.958;2022-11-06T09:47:19;97825.59;;;11.19;90.20
61035;BME280;46916;40.564;-7.958;2022-11-06T09:49:32;97834.00;;;11.22;90.28
61035;BME280;46916;40.564;-7.958;2022-11-06T09:53:46;97845.56;;;11.31;90.36
61035;BME280;46916;40.564;-7.958;2022-11-06T09:55:48;97850.69;;;11.32;90.56
61035;BME280;46916;40.564;-7.958;2022-11-06T09:59:56;97851.28;;;11.36;90.28
61035;BME280;46916;40.564;-7.958;2022-11-06T10:01:58;97845.06;;;11.37;90.58
61035;BME280;46916;40.564;-7.958;2022-11-06T10:04:02;97839.94;;;11.35;91.04
61035;BME280;46916;40.564;-7.958;2022-11-06T10:06:04;97840.78;;;11.36;91.09
61035;BME280;46916;40.564;-7.958;2022-11-06T10:10:20;97845.88;;;11.37;90.85
61035;BME280;46916;40.564;-7.958;2022-11-06T10:12:52;97853.66;;;11.39;90.98
61035;BME280;46916;40.564;-7.958;2022-11-06T10:17:33;97849.56;;;11.46;91.09
61035;BME280;46916;40.564;-7.958;2022-11-06T10:19:53;97852.19;;;11.46;91.09
61035;BME280;46916;40.564;-7.958;2022-11-06T10:22:21;97847.66;;;11.48;91.02
61035;BME280;46916;40.564;-7.958;2022-11-06T10:24:23;97852.75;;;11.50;91.45
61035;BME280;46916;40.564;-7.958;2022-11-06T10:26:35;97852.66;;;11.51;91.18
61035;BME280;46916;40.564;-7.958;2022-11-06T10:33:33;97852.00;;;11.59;91.67
61035;BME280;46916;40.564;-7.958;2022-11-06T10:35:53;97846.75;;;11.59;92.08
61035;BME280;46916;40.564;-7.958;2022-11-06T10:38:08;97843.44;;;11.57;92.54
61035;BME280;46916;40.564;-7.958;2022-11-06T10:40:17;97848.69;;;11.57;92.87
61035;BME280;46916;40.564;-7.958;2022-11-06T10:42:21;97849.50;;;11.57;92.88
61035;BME280;46916;40.564;-7.958;2022-11-06T10:44:27;97848.69;;;11.57;93.18
61035;BME280;46916;40.564;-7.958;2022-11-06T10:47:09;97850.09;;;11.61;93.55
61035;BME280;46916;40.564;-7.958;2022-11-06T10:49:01;97852.59;;;11.62;94.27
61035;BME280;46916;40.564;-7.958;2022-11-06T10:53:42;97853.75;;;11.70;93.96
61035;BME280;46916;40.564;-7.958;2022-11-06T10:58:17;97858.50;;;11.76;93.59
61035;BME280;46916;40.564;-7.958;2022-11-06T11:00:19;97860.84;;;11.79;93.66
61035;BME280;46916;40.564;-7.958;2022-11-06T11:02:27;97857.06;;;11.83;93.87
61035;BME280;46916;40.564;-7.958;2022-11-06T11:04:31;97854.19;;;11.86;94.12
61035;BME280;46916;40.564;-7.958;2022-11-06T11:06:31;97851.31;;;11.89;94.51
61035;BME280;46916;40.564;-7.958;2022-11-06T11:08:40;97850.09;;;11.93;93.89
61035;BME280;46916;40.564;-7.958;2022-11-06T11:10:41;97852.59;;;11.95;94.39
61035;BME280;46916;40.564;-7.958;2022-11-06T11:12:44;97849.72;;;11.98;94.23
61035;BME280;46916;40.564;-7.958;2022-11-06T11:15:13;97856.75;;;11.97;94.37
61035;BME280;46916;40.564;-7.958;2022-11-06T11:17:18;97849.31;;;12.02;94.23
61035;BME280;46916;40.564;-7.958;2022-11-06T11:19:36;97846.44;;;12.05;94.39
61035;BME280;46916;40.564;-7.958;2022-11-06T11:21:37;97851.56;;;12.07;94.38
61035;BME280;46916;40.564;-7.958;2022-11-06T11:23:38;97856.56;;;12.10;94.46
61035;BME280;46916;40.564;-7.958;2022-11-06T11:25:40;97847.59;;;12.12;94.31
61035;BME280;46916;40.564;-7.958;2022-11-06T11:27:43;97843.03;;;12.14;94.56
61035;BME280;46916;40.564;-7.958;2022-11-06T11:29:45;97849.13;;;12.15;94.70
61035;BME280;46916;40.564;-7.958;2022-11-06T11:31:51;97848.88;;;12.18;94.83
61035;BME280;46916;40.564;-7.958;2022-11-06T11:33:54;97840.84;;;12.20;94.79
61035;BME280;46916;40.564;-7.958;2022-11-06T11:35:56;97841.41;;;12.23;94.81
61035;BME280;46916;40.564;-7.958;2022-11-06T11:38:10;97836.75;;;12.27;94.74
61035;BME280;46916;40.564;-7.958;2022-11-06T11:40:30;97837.47;;;12.29;94.78
61035;BME280;46916;40.564;-7.958;2022-11-06T11:42:36;97826.28;;;12.36;94.69
61035;BME280;46916;40.564;-7.958;2022-11-06T11:44:36;97824.78;;;12.44;95.19
61035;BME280;46916;40.564;-7.958;2022-11-06T11:46:57;97824.00;;;12.53;95.31
61035;BME280;46916;40.564;-7.958;2022-11-06T11:48:58;97826.38;;;12.56;95.91
61035;BME280;46916;40.564;-7.958;2022-11-06T11:53:18;97826.50;;;12.54;95.85